createdAt,value
2022-09-27T00:00:43.030Z,64.64
2022-09-27T00:03:27.189Z,64.99
2022-09-27T00:06:15.024Z,65.09
2022-09-27T00:09:01.028Z,65.26
2022-09-27T00:11:45.585Z,65.13
2022-09-27T00:14:29.801Z,65.13
2022-09-27T00:17:13.723Z,65.83
2022-09-27T00:20:00.163Z,65.71
2022-09-27T00:22:44.071Z,65.39
2022-09-27T00:25:29.230Z,64.82
2022-09-27T00:28:14.302Z,64.58
2022-09-27T00:30:59.326Z,64.34
2022-09-27T00:33:43.270Z,64.13
2022-09-27T00:36:28.405Z,65.13
2022-09-27T00:39:12.681Z,65.76
2022-09-27T00:41:58.067Z,64.54
2022-09-27T00:45:10.331Z,64.84
2022-09-27T00:47:59.056Z,64.64
2022-09-27T00:50:46.994Z,64.79
2022-09-27T00:53:35.347Z,65.09
2022-09-27T00:56:23.987Z,64.62
2022-09-27T00:59:15.669Z,64.24
2022-09-27T01:01:59.972Z,65.59
2022-09-27T01:04:45.947Z,65.28
2022-09-27T01:07:29.972Z,64.91
2022-09-27T01:10:14.560Z,65.01
2022-09-27T01:13:06.886Z,65.58
2022-09-27T01:16:00.808Z,65.79
2022-09-27T01:18:58.918Z,66.11
2022-09-27T01:21:49.321Z,66.99
2022-09-27T01:24:58.386Z,67.04
2022-09-27T01:28:12.956Z,66.77
2022-09-27T01:31:06.265Z,66.57
2022-09-27T01:34:02.355Z,66.72
2022-09-27T01:36:54.435Z,65.68
2022-09-27T01:39:48.055Z,65.71
2022-09-27T01:43:05.922Z,66.10
2022-09-27T01:46:01.003Z,66.22
2022-09-27T01:49:09.692Z,66.36
2022-09-27T01:51:57.529Z,66.22
2022-09-27T01:54:46.171Z,65.99
2022-09-27T01:57:38.276Z,66.59
2022-09-27T02:00:25.309Z,66.08
2022-09-27T02:03:17.061Z,66.29
2022-09-27T02:06:39.403Z,66.29
2022-09-27T02:09:38.185Z,66.01
2022-09-27T02:12:41.687Z,66.60
2022-09-27T02:15:35.291Z,66.54
2022-09-27T02:18:53.255Z,66.83
2022-09-27T02:21:46.760Z,67.28
2022-09-27T02:24:37.416Z,66.47
2022-09-27T02:27:28.140Z,66.68
2022-09-27T02:30:16.107Z,66.55
2022-09-27T02:33:04.257Z,67.34
2022-09-27T02:35:51.672Z,66.59
2022-09-27T02:38:36.288Z,65.94
2022-09-27T02:41:23.845Z,66.49
2022-09-27T02:44:13.320Z,66.31
2022-09-27T02:47:21.286Z,65.98
2022-09-27T02:50:26.308Z,66.41
2022-09-27T02:53:24.923Z,65.51
2022-09-27T02:56:27.287Z,65.72
2022-09-27T02:59:35.699Z,65.37
2022-09-27T03:02:40.434Z,65.88
2022-09-27T03:05:48.369Z,66.23
2022-09-27T03:08:35.842Z,66.46
2022-09-27T03:11:20.738Z,66.35
2022-09-27T03:14:09.299Z,65.75
2022-09-27T03:17:00.314Z,65.47
2022-09-27T03:20:03.493Z,65.69
2022-09-27T03:23:08.378Z,66.67
2022-09-27T03:25:54.795Z,66.91
2022-09-27T03:28:39.634Z,66.22
2022-09-27T03:31:23.981Z,66.66
2022-09-27T03:34:40.239Z,66.45
2022-09-27T03:37:24.947Z,65.60
2022-09-27T03:40:10.935Z,65.40
2022-09-27T03:42:57.001Z,65.43
2022-09-27T03:45:41.563Z,65.30
2022-09-27T03:48:28.494Z,65.76
2022-09-27T03:51:13.134Z,66.51
2022-09-27T03:53:57.941Z,66.08
2022-09-27T03:56:42.258Z,65.78
2022-09-27T03:59:28.003Z,65.26
2022-09-27T04:02:30.614Z,65.24
2022-09-27T04:05:53.039Z,65.28
2022-09-27T04:08:43.782Z,65.63
2022-09-27T04:11:28.132Z,66.47
2022-09-27T04:14:13.335Z,66.82
2022-09-27T04:17:18.600Z,67.13
2022-09-27T04:20:28.621Z,67.66
2022-09-27T04:23:13.802Z,67.14
2022-09-27T04:26:06.900Z,67.44
2022-09-27T04:29:10.346Z,66.26
2022-09-27T04:31:58.220Z,66.30
2022-09-27T04:35:20.855Z,65.76
2022-09-27T04:38:05.569Z,64.67
2022-09-27T04:40:50.703Z,63.76
2022-09-27T04:43:35.359Z,63.32
2022-09-27T04:46:21.433Z,63.97
2022-09-27T04:49:05.637Z,63.81
2022-09-27T04:51:54.257Z,63.72
2022-09-27T04:54:39.779Z,63.26
2022-09-27T04:57:28.353Z,62.99
2022-09-27T05:00:13.925Z,63.13
2022-09-27T05:02:59.322Z,63.66
2022-09-27T05:06:15.825Z,62.69
2022-09-27T05:09:02.130Z,62.44
2022-09-27T05:11:48.290Z,61.86
2022-09-27T05:14:50.340Z,60.94
2022-09-27T05:17:49.033Z,61.46
2022-09-27T05:21:08.069Z,61.36
2022-09-27T05:23:57.519Z,59.98
2022-09-27T05:26:43.117Z,60.18
2022-09-27T05:29:27.132Z,59.09
2022-09-27T05:32:25.077Z,57.65
2022-09-27T05:35:22.802Z,56.45
2022-09-27T05:38:06.644Z,55.73
2022-09-27T05:40:53.153Z,55.10
2022-09-27T05:43:38.723Z,54.49
2022-09-27T05:46:22.780Z,53.78
2022-09-27T05:49:06.687Z,53.87
2022-09-27T05:51:50.585Z,53.59
2022-09-27T05:54:34.887Z,53.11
2022-09-27T05:57:18.999Z,52.69
2022-09-27T06:00:09.440Z,53.11
2022-09-27T06:02:57.868Z,52.99
2022-09-27T06:06:20.498Z,52.67
2022-09-27T06:09:12.476Z,53.24
2022-09-27T06:11:56.994Z,53.41
2022-09-27T06:14:42.835Z,53.19
2022-09-27T06:17:35.369Z,52.32
2022-09-27T06:20:25.608Z,51.49
2022-09-27T06:23:11.593Z,50.51
2022-09-27T06:25:55.690Z,50.10
2022-09-27T06:28:47.868Z,50.19
2022-09-27T06:31:32.330Z,51.81
2022-09-27T06:34:28.303Z,49.59
2022-09-27T06:37:12.550Z,51.30
2022-09-27T06:39:56.575Z,51.46
2022-09-27T06:43:04.341Z,52.44
2022-09-27T06:46:19.527Z,53.02
2022-09-27T06:49:33.837Z,53.17
2022-09-27T06:52:17.714Z,53.49
2022-09-27T06:55:01.676Z,53.14
2022-09-27T06:58:05.316Z,52.98
2022-09-27T07:00:50.898Z,52.29
2022-09-27T07:04:00.773Z,52.69
2022-09-27T07:07:00.721Z,52.41
2022-09-27T07:09:48.824Z,52.36
2022-09-27T07:12:32.648Z,51.92
2022-09-27T07:15:16.682Z,50.97
2022-09-27T07:18:01.671Z,50.13
2022-09-27T07:20:46.340Z,49.97
2022-09-27T07:23:31.742Z,49.85
2022-09-27T07:26:16.234Z,49.75
2022-09-27T07:29:00.855Z,49.81
2022-09-27T07:31:46.386Z,48.97
2022-09-27T07:34:30.270Z,49.69
2022-09-27T07:37:14.427Z,50.85
2022-09-27T07:39:59.927Z,51.34
2022-09-27T07:42:44.080Z,51.06
2022-09-27T07:45:28.217Z,51.04
2022-09-27T07:48:39.415Z,51.31
2022-09-27T07:51:46.285Z,50.65
2022-09-27T07:54:43.703Z,50.19
2022-09-27T07:57:45.057Z,49.66
2022-09-27T08:00:29.599Z,49.41
2022-09-27T08:03:16.302Z,49.87
2022-09-27T08:06:04.443Z,49.25
2022-09-27T08:08:48.723Z,49.74
2022-09-27T08:11:34.004Z,49.17
2022-09-27T08:14:21.752Z,48.39
2022-09-27T08:17:06.919Z,47.61
2022-09-27T08:20:11.095Z,47.57
2022-09-27T08:23:33.597Z,48.66
2022-09-27T08:26:32.318Z,48.26
2022-09-27T08:29:26.149Z,48.38
2022-09-27T08:32:13.297Z,48.61
2022-09-27T08:34:57.180Z,48.79
2022-09-27T08:37:41.073Z,49.10
2022-09-27T08:40:28.214Z,49.37
2022-09-27T08:43:20.831Z,48.99
2022-09-27T08:46:19.945Z,49.51
2022-09-27T08:49:08.812Z,49.46
2022-09-27T08:51:55.802Z,49.12
2022-09-27T08:54:41.167Z,49.01
2022-09-27T08:57:26.501Z,48.93
2022-09-27T09:00:13.987Z,48.78
2022-09-27T09:03:03.972Z,49.37
2022-09-27T09:06:05.475Z,49.89
2022-09-27T09:09:02.477Z,49.98
2022-09-27T09:12:18.628Z,49.46
2022-09-27T09:15:17.703Z,49.97
2022-09-27T09:18:23.381Z,49.14
2022-09-27T09:21:35.305Z,48.94
2022-09-27T09:24:33.848Z,50.51
2022-09-27T09:27:27.108Z,49.46
2022-09-27T09:30:23.437Z,48.80
2022-09-27T09:33:26.056Z,49.65
2022-09-27T09:36:21.338Z,49.63
2022-09-27T09:39:13.476Z,49.49
2022-09-27T09:42:08.824Z,48.77
2022-09-27T09:45:01.181Z,49.73
2022-09-27T09:47:56.022Z,49.55
2022-09-27T09:50:46.881Z,49.07
2022-09-27T09:53:44.290Z,47.66
2022-09-27T09:56:33.253Z,46.34
2022-09-27T09:59:24.563Z,47.29
2022-09-27T10:02:23.270Z,46.75
2022-09-27T10:05:09.084Z,46.13
2022-09-27T10:07:58.890Z,47.38
2022-09-27T10:10:43.148Z,46.84
2022-09-27T10:13:56.988Z,46.91
2022-09-27T10:16:43.301Z,48.11
2022-09-27T10:19:30.681Z,47.05
2022-09-27T10:22:25.146Z,48.28
2022-09-27T10:25:12.575Z,46.65
2022-09-27T10:28:03.528Z,46.05
2022-09-27T10:30:57.359Z,46.22
2022-09-27T10:33:55.187Z,46.59
2022-09-27T10:36:41.311Z,46.42
2022-09-27T10:39:27.682Z,47.03
2022-09-27T10:42:33.719Z,46.83
2022-09-27T10:45:28.164Z,48.19
2022-09-27T10:48:23.664Z,46.18
2022-09-27T10:51:25.062Z,46.44
2022-09-27T10:54:22.067Z,45.88
2022-09-27T10:57:17.615Z,46.08
2022-09-27T11:00:08.418Z,45.07
2022-09-27T11:02:55.694Z,44.30
2022-09-27T11:05:44.281Z,45.36
2022-09-27T11:08:32.244Z,45.41
2022-09-27T11:11:31.204Z,43.80
2022-09-27T11:14:23.199Z,45.76
2022-09-27T11:17:19.004Z,44.25
2022-09-27T11:20:26.230Z,44.29
2022-09-27T11:23:34.889Z,44.63
2022-09-27T11:26:38.674Z,44.83
2022-09-27T11:29:31.897Z,46.80
2022-09-27T11:33:07.111Z,44.97
2022-09-27T11:36:01.342Z,44.49
2022-09-27T11:39:02.901Z,44.29
2022-09-27T11:42:07.382Z,44.47
2022-09-27T11:45:34.263Z,45.78
2022-09-27T11:48:28.781Z,47.18
2022-09-27T11:51:26.874Z,47.19
2022-09-27T11:54:36.102Z,47.44
2022-09-27T11:57:26.535Z,46.21
2022-09-27T12:00:19.046Z,44.39
2022-09-27T12:03:47.890Z,43.63
2022-09-27T12:06:49.064Z,46.03
2022-09-27T12:09:37.510Z,45.94
2022-09-27T12:12:25.706Z,44.44
2022-09-27T12:15:17.088Z,45.63
2022-09-27T12:18:15.383Z,46.69
2022-09-27T12:21:03.160Z,45.98
2022-09-27T12:23:51.556Z,46.70
2022-09-27T12:26:56.446Z,47.17
2022-09-27T12:29:43.893Z,46.60
2022-09-27T12:32:33.309Z,47.20
2022-09-27T12:35:22.877Z,46.50
2022-09-27T12:38:15.118Z,45.37
2022-09-27T12:41:01.457Z,46.36
2022-09-27T12:43:54.865Z,45.01
2022-09-27T12:47:00.859Z,44.03
2022-09-27T12:49:52.544Z,44.01
2022-09-27T12:52:42.603Z,42.99
2022-09-27T12:55:55.699Z,43.78
2022-09-27T12:59:03.785Z,43.01
2022-09-27T13:02:28.355Z,42.76
2022-09-27T13:05:46.136Z,43.61
2022-09-27T13:09:04.657Z,44.46
2022-09-27T13:11:58.672Z,44.59
2022-09-27T13:14:51.838Z,43.36
2022-09-27T13:17:53.352Z,42.87
2022-09-27T13:21:00.307Z,43.73
2022-09-27T13:24:47.258Z,44.61
2022-09-27T13:27:51.563Z,44.53
2022-09-27T13:30:46.405Z,45.06
2022-09-27T13:33:41.604Z,46.44
2022-09-27T13:36:34.316Z,46.62
2022-09-27T13:39:25.794Z,46.91
2022-09-27T13:42:37.172Z,46.07
2022-09-27T13:45:27.233Z,45.63
2022-09-27T13:48:17.892Z,47.68
2022-09-27T13:51:06.342Z,48.14
2022-09-27T13:53:59.015Z,47.32
2022-09-27T13:56:54.322Z,46.82
2022-09-27T13:59:44.495Z,47.36
2022-09-27T14:02:59.169Z,46.02
2022-09-27T14:05:53.330Z,47.26
2022-09-27T14:08:44.727Z,47.40
2022-09-27T14:11:32.278Z,46.56
2022-09-27T14:14:20.910Z,48.14
2022-09-27T14:17:11.702Z,47.96
2022-09-27T14:19:57.543Z,48.70
2022-09-27T14:22:44.201Z,48.61
2022-09-27T14:25:28.562Z,48.49
2022-09-27T14:28:21.705Z,49.29
2022-09-27T14:31:17.895Z,50.11
2022-09-27T14:34:19.797Z,50.14
2022-09-27T14:37:23.731Z,50.48
2022-09-27T14:40:21.911Z,50.24
2022-09-27T14:43:06.746Z,51.15
2022-09-27T14:45:53.998Z,49.79
2022-09-27T14:48:39.296Z,49.63
2022-09-27T14:51:28.185Z,48.96
2022-09-27T14:54:22.266Z,48.94
2022-09-27T14:57:08.347Z,48.98
2022-09-27T14:59:52.131Z,48.33
2022-09-27T15:02:38.238Z,47.86
2022-09-27T15:05:24.700Z,48.10
2022-09-27T15:08:08.629Z,48.51
2022-09-27T15:10:54.659Z,49.04
2022-09-27T15:13:39.704Z,49.97
2022-09-27T15:16:25.453Z,50.43
2022-09-27T15:19:17.589Z,50.10
2022-09-27T15:22:33.041Z,49.95
2022-09-27T15:25:32.558Z,50.34
2022-09-27T15:28:20.778Z,50.66
2022-09-27T15:31:05.748Z,50.80
2022-09-27T15:33:56.208Z,50.56
2022-09-27T15:36:55.828Z,50.40
2022-09-27T15:39:41.106Z,51.53
2022-09-27T15:42:24.785Z,52.51
2022-09-27T15:45:29.097Z,52.91
2022-09-27T15:48:16.329Z,52.55
2022-09-27T15:51:01.258Z,52.56
2022-09-27T15:53:46.090Z,51.99
2022-09-27T15:56:29.860Z,51.08
2022-09-27T15:59:17.943Z,50.89
2022-09-27T16:02:08.174Z,51.17
2022-09-27T16:04:52.263Z,51.06
2022-09-27T16:07:36.293Z,51.25
2022-09-27T16:10:22.038Z,51.38
2022-09-27T16:13:05.818Z,51.46
2022-09-27T16:15:50.197Z,52.21
2022-09-27T16:18:35.410Z,52.01
2022-09-27T16:21:19.165Z,52.38
2022-09-27T16:24:06.160Z,53.62
2022-09-27T16:26:50.375Z,52.95
2022-09-27T16:29:34.150Z,53.03
2022-09-27T16:32:18.234Z,52.55
2022-09-27T16:35:03.453Z,52.75
2022-09-27T16:37:47.763Z,53.22
2022-09-27T16:40:32.153Z,53.54
2022-09-27T16:43:16.743Z,53.31
2022-09-27T16:46:09.111Z,53.83
2022-09-27T16:48:54.647Z,54.22
2022-09-27T16:51:57.299Z,54.17
2022-09-27T16:54:41.453Z,53.98
2022-09-27T16:57:25.423Z,53.91
2022-09-27T17:00:10.785Z,54.14
2022-09-27T17:02:55.034Z,54.11
2022-09-27T17:05:39.087Z,53.92
2022-09-27T17:08:27.271Z,53.90
2022-09-27T17:11:14.874Z,53.75
2022-09-27T17:13:59.404Z,54.24
2022-09-27T17:16:43.545Z,54.61
2022-09-27T17:19:28.321Z,54.17
2022-09-27T17:22:12.035Z,53.47
2022-09-27T17:24:57.246Z,55.01
2022-09-27T17:27:41.070Z,54.34
2022-09-27T17:30:26.247Z,55.88
2022-09-27T17:33:10.293Z,54.70
2022-09-27T17:36:02.111Z,55.26
2022-09-27T17:38:46.895Z,55.54
2022-09-27T17:41:37.557Z,55.52
2022-09-27T17:44:27.077Z,56.11
2022-09-27T17:47:29.026Z,56.08
2022-09-27T17:50:28.977Z,56.49
2022-09-27T17:53:12.998Z,57.48
2022-09-27T17:56:03.764Z,57.39
2022-09-27T17:58:49.974Z,56.76
2022-09-27T18:01:34.580Z,56.74
2022-09-27T18:04:20.733Z,56.96
2022-09-27T18:07:04.825Z,55.98
2022-09-27T18:09:50.213Z,56.17
2022-09-27T18:12:35.137Z,56.27
2022-09-27T18:15:22.045Z,56.14
2022-09-27T18:18:06.293Z,56.12
2022-09-27T18:20:50.160Z,56.41
2022-09-27T18:23:34.691Z,55.72
2022-09-27T18:26:20.216Z,55.58
2022-09-27T18:29:07.165Z,55.71
2022-09-27T18:31:52.418Z,55.71
2022-09-27T18:34:36.432Z,56.00
2022-09-27T18:37:20.520Z,56.19
2022-09-27T18:40:05.130Z,56.82
2022-09-27T18:42:49.156Z,57.35
2022-09-27T18:45:37.323Z,57.75
2022-09-27T18:48:22.814Z,58.22
2022-09-27T18:51:08.434Z,58.07
2022-09-27T18:53:57.418Z,59.72
2022-09-27T18:56:43.200Z,59.09
2022-09-27T18:59:28.974Z,59.94
2022-09-27T19:02:13.115Z,60.44
2022-09-27T19:04:58.886Z,60.28
2022-09-27T19:07:43.104Z,60.42
2022-09-27T19:10:27.244Z,66.47
2022-09-27T19:13:11.450Z,76.19
2022-09-27T19:15:57.000Z,78.91
2022-09-27T19:18:43.109Z,80.76
2022-09-27T19:21:30.570Z,79.32
2022-09-27T19:24:16.903Z,82.03
2022-09-27T19:27:00.611Z,81.26
2022-09-27T19:29:46.078Z,81.36
2022-09-27T19:32:29.845Z,82.89
2022-09-27T19:35:14.003Z,81.60
2022-09-27T19:37:59.351Z,80.72
2022-09-27T19:40:43.177Z,82.07
2022-09-27T19:43:27.046Z,82.99
2022-09-27T19:46:14.201Z,81.83
2022-09-27T19:48:58.268Z,81.35
2022-09-27T19:51:42.194Z,82.80
2022-09-27T19:54:27.408Z,82.29
2022-09-27T19:57:11.363Z,79.65
2022-09-27T19:59:55.323Z,78.03
2022-09-27T20:02:39.434Z,79.54
2022-09-27T20:05:23.692Z,81.72
2022-09-27T20:08:07.610Z,81.20
2022-09-27T20:10:58.168Z,81.89
2022-09-27T20:13:44.898Z,82.09
2022-09-27T20:16:29.375Z,82.53
2022-09-27T20:19:13.554Z,85.46
2022-09-27T20:21:57.780Z,85.21
2022-09-27T20:24:41.733Z,83.47
2022-09-27T20:27:26.842Z,84.17
2022-09-27T20:30:12.369Z,85.03
2022-09-27T20:33:09.962Z,85.19
2022-09-27T20:35:55.102Z,83.76
2022-09-27T20:38:39.124Z,83.70
2022-09-27T20:41:26.665Z,85.78
2022-09-27T20:44:13.795Z,85.97
2022-09-27T20:46:59.327Z,83.92
2022-09-27T20:49:43.173Z,83.54
2022-09-27T20:52:26.897Z,85.44
2022-09-27T20:55:11.876Z,85.96
2022-09-27T20:57:57.681Z,80.78
2022-09-27T21:00:43.185Z,78.82
2022-09-27T21:03:27.036Z,80.63
2022-09-27T21:06:13.023Z,84.27
2022-09-27T21:08:56.916Z,84.46
2022-09-27T21:11:40.695Z,85.42
2022-09-27T21:14:24.531Z,85.88
2022-09-27T21:17:10.216Z,85.51
2022-09-27T21:19:54.199Z,85.80
2022-09-27T21:22:38.477Z,85.42
2022-09-27T21:25:22.699Z,84.67
2022-09-27T21:28:06.569Z,84.25
2022-09-27T21:30:50.454Z,83.42
2022-09-27T21:33:36.248Z,83.36
2022-09-27T21:36:20.328Z,84.10
2022-09-27T21:39:04.870Z,83.15
2022-09-27T21:41:48.702Z,77.31
2022-09-27T21:44:32.461Z,79.14
2022-09-27T21:47:16.271Z,80.14
2022-09-27T21:50:01.506Z,81.36
2022-09-27T21:52:46.747Z,81.16
2022-09-27T21:55:30.560Z,81.74
2022-09-27T21:58:14.316Z,82.08
2022-09-27T22:00:58.034Z,82.46
2022-09-27T22:03:43.636Z,81.83
2022-09-27T22:06:30.722Z,84.88
2022-09-27T22:09:17.099Z,85.85
2022-09-27T22:12:01.080Z,86.25
2022-09-27T22:14:44.869Z,86.54
2022-09-27T22:17:28.979Z,85.69
2022-09-27T22:20:12.966Z,85.42
2022-09-27T22:22:58.530Z,85.42
2022-09-27T22:25:42.429Z,83.50
2022-09-27T22:28:27.090Z,83.40
2022-09-27T22:31:11.736Z,84.55
2022-09-27T22:33:57.983Z,84.94
2022-09-27T22:36:42.394Z,86.26
2022-09-27T22:39:27.894Z,85.96
2022-09-27T22:42:11.705Z,84.80
2022-09-27T22:44:55.579Z,83.39
2022-09-27T22:47:39.881Z,84.21
2022-09-27T22:50:23.998Z,84.20
2022-09-27T22:53:07.941Z,83.04
2022-09-27T22:56:04.350Z,82.37
2022-09-27T22:58:49.928Z,83.57
2022-09-27T23:01:34.178Z,84.41
2022-09-27T23:04:18.103Z,84.68
2022-09-27T23:07:02.030Z,85.36
2022-09-27T23:09:46.223Z,83.59
2022-09-27T23:12:32.202Z,83.47
2022-09-27T23:15:16.232Z,85.20
2022-09-27T23:18:00.517Z,85.15
2022-09-27T23:20:45.099Z,84.54
2022-09-27T23:23:29.164Z,84.43
2022-09-27T23:26:15.762Z,89.48
2022-09-27T23:29:02.757Z,87.76
2022-09-27T23:31:46.681Z,86.09
2022-09-27T23:34:30.587Z,84.74
2022-09-27T23:37:14.485Z,83.84
2022-09-27T23:39:58.461Z,82.97
2022-09-27T23:42:42.321Z,80.56
2022-09-27T23:45:28.742Z,80.96
2022-09-27T23:48:13.065Z,81.38
2022-09-27T23:50:57.483Z,79.33
2022-09-27T23:53:41.759Z,79.91
2022-09-27T23:56:26.248Z,80.84
2022-09-27T23:59:10.211Z,81.48
